sensor_id;sensor_type;location;lat;lon;timestamp;P1;durP1;ratioP1;P2;durP2;ratioP2
34405;SDS011;20658;45.630;8.886;2024-01-15T00:02:12;85.82;;;59.10;;
34405;SDS011;20658;45.630;8.886;2024-01-15T00:04:46;81.25;;;59.70;;
34405;SDS011;20658;45.630;8.886;2024-01-15T00:07:19;86.25;;;61.67;;
34405;SDS011;20658;45.630;8.886;2024-01-15T00:09:53;86.93;;;59.90;;
34405;SDS011;20658;45.630;8.886;2024-01-15T00:12:26;86.07;;;60.95;;
34405;SDS011;20658;45.630;8.886;2024-01-15T00:15:01;90.88;;;60.95;;
34405;SDS011;20658;45.630;8.886;2024-01-15T00:17:36;83.55;;;60.95;;
34405;SDS011;20658;45.630;8.886;2024-01-15T00:20:09;97.75;;;64.75;;
34405;SDS011;20658;45.630;8.886;2024-01-15T00:22:44;88.03;;;60.35;;
34405;SDS011;20658;45.630;8.886;2024-01-15T00:25:17;83.53;;;58.97;;
34405;SDS011;20658;45.630;8.886;2024-01-15T00:27:50;83.57;;;57.95;;
34405;SDS011;20658;45.630;8.886;2024-01-15T00:30:25;82.35;;;57.28;;
34405;SDS011;20658;45.630;8.886;2024-01-15T00:32:59;79.50;;;57.33;;
34405;SDS011;20658;45.630;8.886;2024-01-15T00:35:50;84.35;;;57.38;;
34405;SDS011;20658;45.630;8.886;2024-01-15T00:38:24;78.32;;;54.67;;
34405;SDS011;20658;45.630;8.886;2024-01-15T00:40:57;84.28;;;58.28;;
34405;SDS011;20658;45.630;8.886;2024-01-15T00:43:31;84.88;;;58.85;;
34405;SDS011;20658;45.630;8.886;2024-01-15T00:46:06;84.20;;;57.05;;
34405;SDS011;20658;45.630;8.886;2024-01-15T00:48:39;82.90;;;58.53;;
34405;SDS011;20658;45.630;8.886;2024-01-15T00:51:12;86.63;;;58.83;;
34405;SDS011;20658;45.630;8.886;2024-01-15T00:53:46;87.97;;;62.13;;
34405;SDS011;20658;45.630;8.886;2024-01-15T00:56:19;89.43;;;62.83;;
34405;SDS011;20658;45.630;8.886;2024-01-15T00:58:52;83.70;;;57.92;;
34405;SDS011;20658;45.630;8.886;2024-01-15T01:01:27;89.55;;;60.72;;
34405;SDS011;20658;45.630;8.886;2024-01-15T01:04:01;84.75;;;58.33;;
34405;SDS011;20658;45.630;8.886;2024-01-15T01:06:34;92.63;;;64.05;;
34405;SDS011;20658;45.630;8.886;2024-01-15T01:09:08;93.28;;;62.63;;
34405;SDS011;20658;45.630;8.886;2024-01-15T01:11:41;90.05;;;59.38;;
34405;SDS011;20658;45.630;8.886;2024-01-15T01:14:14;82.75;;;58.60;;
34405;SDS011;20658;45.630;8.886;2024-01-15T01:16:49;87.07;;;60.03;;
34405;SDS011;20658;45.630;8.886;2024-01-15T01:19:23;91.18;;;60.30;;
34405;SDS011;20658;45.630;8.886;2024-01-15T01:21:57;88.45;;;60.03;;
34405;SDS011;20658;45.630;8.886;2024-01-15T01:24:31;93.00;;;62.45;;
34405;SDS011;20658;45.630;8.886;2024-01-15T01:27:04;90.18;;;59.85;;
34405;SDS011;20658;45.630;8.886;2024-01-15T01:29:37;89.78;;;60.80;;
34405;SDS011;20658;45.630;8.886;2024-01-15T01:32:12;90.00;;;60.10;;
34405;SDS011;20658;45.630;8.886;2024-01-15T01:34:46;85.72;;;60.08;;
34405;SDS011;20658;45.630;8.886;2024-01-15T01:37:19;93.05;;;63.67;;
34405;SDS011;20658;45.630;8.886;2024-01-15T01:39:52;86.60;;;61.67;;
34405;SDS011;20658;45.630;8.886;2024-01-15T01:42:26;87.50;;;59.50;;
34405;SDS011;20658;45.630;8.886;2024-01-15T01:44:59;84.53;;;58.47;;
34405;SDS011;20658;45.630;8.886;2024-01-15T01:47:34;88.13;;;61.88;;
34405;SDS011;20658;45.630;8.886;2024-01-15T01:50:07;87.85;;;59.15;;
34405;SDS011;20658;45.630;8.886;2024-01-15T01:52:41;94.53;;;60.10;;
34405;SDS011;20658;45.630;8.886;2024-01-15T01:55:15;88.07;;;59.95;;
34405;SDS011;20658;45.630;8.886;2024-01-15T01:57:48;90.72;;;62.40;;
34405;SDS011;20658;45.630;8.886;2024-01-15T02:00:22;87.70;;;58.85;;
34405;SDS011;20658;45.630;8.886;2024-01-15T02:02:57;85.18;;;59.60;;
34405;SDS011;20658;45.630;8.886;2024-01-15T02:05:31;88.57;;;58.38;;
34405;SDS011;20658;45.630;8.886;2024-01-15T02:08:05;91.00;;;61.88;;
34405;SDS011;20658;45.630;8.886;2024-01-15T02:10:39;93.53;;;64.35;;
34405;SDS011;20658;45.630;8.886;2024-01-15T02:13:12;89.53;;;59.42;;
34405;SDS011;20658;45.630;8.886;2024-01-15T02:15:46;88.82;;;59.47;;
34405;SDS011;20658;45.630;8.886;2024-01-15T02:18:20;91.55;;;61.28;;
34405;SDS011;20658;45.630;8.886;2024-01-15T02:20:54;89.43;;;60.00;;
34405;SDS011;20658;45.630;8.886;2024-01-15T02:23:28;87.25;;;60.70;;
34405;SDS011;20658;45.630;8.886;2024-01-15T02:26:02;86.07;;;59.25;;
34405;SDS011;20658;45.630;8.886;2024-01-15T02:28:37;88.82;;;58.35;;
34405;SDS011;20658;45.630;8.886;2024-01-15T02:31:10;86.05;;;57.97;;
34405;SDS011;20658;45.630;8.886;2024-01-15T02:33:44;85.70;;;61.05;;
34405;SDS011;20658;45.630;8.886;2024-01-15T02:36:18;91.13;;;61.08;;
34405;SDS011;20658;45.630;8.886;2024-01-15T02:38:53;82.78;;;57.08;;
34405;SDS011;20658;45.630;8.886;2024-01-15T02:41:21;87.57;;;59.30;;
34405;SDS011;20658;45.630;8.886;2024-01-15T02:43:54;80.70;;;56.80;;
34405;SDS011;20658;45.630;8.886;2024-01-15T02:46:28;93.00;;;62.10;;
34405;SDS011;20658;45.630;8.886;2024-01-15T02:49:01;95.55;;;65.38;;
34405;SDS011;20658;45.630;8.886;2024-01-15T02:51:34;89.10;;;62.22;;
34405;SDS011;20658;45.630;8.886;2024-01-15T02:54:09;92.25;;;61.85;;
34405;SDS011;20658;45.630;8.886;2024-01-15T02:56:43;89.57;;;61.25;;
34405;SDS011;20658;45.630;8.886;2024-01-15T02:59:16;93.72;;;63.53;;
34405;SDS011;20658;45.630;8.886;2024-01-15T03:01:49;105.25;;;68.03;;
34405;SDS011;20658;45.630;8.886;2024-01-15T03:04:23;95.00;;;63.13;;
34405;SDS011;20658;45.630;8.886;2024-01-15T03:06:51;89.53;;;61.38;;
34405;SDS011;20658;45.630;8.886;2024-01-15T03:09:26;94.82;;;62.28;;
34405;SDS011;20658;45.630;8.886;2024-01-15T03:11:59;99.22;;;65.50;;
34405;SDS011;20658;45.630;8.886;2024-01-15T03:14:33;100.93;;;66.47;;
34405;SDS011;20658;45.630;8.886;2024-01-15T03:17:06;94.93;;;62.42;;
34405;SDS011;20658;45.630;8.886;2024-01-15T03:19:41;104.43;;;65.00;;
34405;SDS011;20658;45.630;8.886;2024-01-15T03:22:14;97.10;;;62.92;;
34405;SDS011;20658;45.630;8.886;2024-01-15T03:24:49;95.93;;;64.55;;
34405;SDS011;20658;45.630;8.886;2024-01-15T03:27:23;95.75;;;64.30;;
34405;SDS011;20658;45.630;8.886;2024-01-15T03:29:57;103.43;;;66.35;;
34405;SDS011;20658;45.630;8.886;2024-01-15T03:32:30;97.25;;;63.38;;
34405;SDS011;20658;45.630;8.886;2024-01-15T03:35:04;102.95;;;65.47;;
34405;SDS011;20658;45.630;8.886;2024-01-15T03:37:33;100.65;;;66.80;;
34405;SDS011;20658;45.630;8.886;2024-01-15T03:40:09;96.32;;;66.28;;
34405;SDS011;20658;45.630;8.886;2024-01-15T03:42:44;99.38;;;64.15;;
34405;SDS011;20658;45.630;8.886;2024-01-15T03:45:17;95.55;;;64.43;;
34405;SDS011;20658;45.630;8.886;2024-01-15T03:47:50;92.18;;;63.72;;
34405;SDS011;20658;45.630;8.886;2024-01-15T03:50:24;85.22;;;59.85;;
34405;SDS011;20658;45.630;8.886;2024-01-15T03:52:57;93.78;;;61.15;;
34405;SDS011;20658;45.630;8.886;2024-01-15T03:55:32;95.43;;;64.65;;
34405;SDS011;20658;45.630;8.886;2024-01-15T03:58:05;93.18;;;62.13;;
34405;SDS011;20658;45.630;8.886;2024-01-15T04:00:39;92.15;;;63.67;;
34405;SDS011;20658;45.630;8.886;2024-01-15T04:03:12;99.88;;;65.75;;
34405;SDS011;20658;45.630;8.886;2024-01-15T04:05:45;100.90;;;65.10;;
34405;SDS011;20658;45.630;8.886;2024-01-15T04:08:19;98.97;;;66.25;;
34405;SDS011;20658;45.630;8.886;2024-01-15T04:10:54;101.03;;;66.82;;
34405;SDS011;20658;45.630;8.886;2024-01-15T04:13:27;96.60;;;66.00;;
34405;SDS011;20658;45.630;8.886;2024-01-15T04:16:01;94.35;;;63.85;;
34405;SDS011;20658;45.630;8.886;2024-01-15T04:18:35;93.47;;;61.03;;
34405;SDS011;20658;45.630;8.886;2024-01-15T04:21:08;94.85;;;63.75;;
34405;SDS011;20658;45.630;8.886;2024-01-15T04:23:41;98.65;;;63.60;;
34405;SDS011;20658;45.630;8.886;2024-01-15T04:26:16;99.43;;;65.28;;
34405;SDS011;20658;45.630;8.886;2024-01-15T04:28:50;93.32;;;62.90;;
34405;SDS011;20658;45.630;8.886;2024-01-15T04:31:23;92.20;;;62.22;;
34405;SDS011;20658;45.630;8.886;2024-01-15T04:33:58;95.13;;;61.72;;
34405;SDS011;20658;45.630;8.886;2024-01-15T04:36:31;90.45;;;60.90;;
34405;SDS011;20658;45.630;8.886;2024-01-15T04:39:11;93.75;;;60.80;;
34405;SDS011;20658;45.630;8.886;2024-01-15T04:41:46;85.22;;;57.60;;
34405;SDS011;20658;45.630;8.886;2024-01-15T04:44:19;91.68;;;62.30;;
34405;SDS011;20658;45.630;8.886;2024-01-15T04:46:52;89.00;;;61.30;;
34405;SDS011;20658;45.630;8.886;2024-01-15T04:49:26;90.80;;;60.35;;
34405;SDS011;20658;45.630;8.886;2024-01-15T04:52:00;88.57;;;60.63;;
34405;SDS011;20658;45.630;8.886;2024-01-15T04:54:34;95.13;;;63.50;;
34405;SDS011;20658;45.630;8.886;2024-01-15T04:57:09;97.93;;;67.55;;
34405;SDS011;20658;45.630;8.886;2024-01-15T04:59:42;99.75;;;66.78;;
34405;SDS011;20658;45.630;8.886;2024-01-15T05:02:15;88.85;;;61.58;;
34405;SDS011;20658;45.630;8.886;2024-01-15T05:04:49;93.80;;;63.85;;
34405;SDS011;20658;45.630;8.886;2024-01-15T05:07:22;99.45;;;66.13;;
34405;SDS011;20658;45.630;8.886;2024-01-15T05:09:56;92.53;;;65.50;;
34405;SDS011;20658;45.630;8.886;2024-01-15T05:12:30;96.55;;;62.75;;
34405;SDS011;20658;45.630;8.886;2024-01-15T05:15:06;92.55;;;63.45;;
34405;SDS011;20658;45.630;8.886;2024-01-15T05:17:41;97.60;;;62.80;;
34405;SDS011;20658;45.630;8.886;2024-01-15T05:20:14;93.22;;;65.95;;
34405;SDS011;20658;45.630;8.886;2024-01-15T05:22:42;96.32;;;65.32;;
34405;SDS011;20658;45.630;8.886;2024-01-15T05:25:16;97.25;;;66.30;;
34405;SDS011;20658;45.630;8.886;2024-01-15T05:27:51;98.00;;;63.20;;
34405;SDS011;20658;45.630;8.886;2024-01-15T05:30:24;102.50;;;67.85;;
34405;SDS011;20658;45.630;8.886;2024-01-15T05:32:57;91.95;;;64.45;;
34405;SDS011;20658;45.630;8.886;2024-01-15T05:35:31;95.55;;;65.78;;
34405;SDS011;20658;45.630;8.886;2024-01-15T05:38:05;102.57;;;68.25;;
34405;SDS011;20658;45.630;8.886;2024-01-15T05:40:38;97.57;;;64.20;;
34405;SDS011;20658;45.630;8.886;2024-01-15T05:43:13;101.10;;;66.28;;
34405;SDS011;20658;45.630;8.886;2024-01-15T05:45:46;96.47;;;64.55;;
34405;SDS011;20658;45.630;8.886;2024-01-15T05:48:20;101.75;;;66.20;;
34405;SDS011;20658;45.630;8.886;2024-01-15T05:50:53;102.10;;;64.80;;
34405;SDS011;20658;45.630;8.886;2024-01-15T05:53:27;215.20;;;115.13;;
34405;SDS011;20658;45.630;8.886;2024-01-15T05:56:00;263.33;;;157.98;;
34405;SDS011;20658;45.630;8.886;2024-01-15T05:58:35;116.53;;;69.63;;
34405;SDS011;20658;45.630;8.886;2024-01-15T06:01:09;96.65;;;64.35;;
34405;SDS011;20658;45.630;8.886;2024-01-15T06:03:42;89.10;;;60.80;;
34405;SDS011;20658;45.630;8.886;2024-01-15T06:06:16;90.97;;;60.58;;
34405;SDS011;20658;45.630;8.886;2024-01-15T06:08:49;91.85;;;61.70;;
34405;SDS011;20658;45.630;8.886;2024-01-15T06:11:22;98.65;;;63.97;;
34405;SDS011;20658;45.630;8.886;2024-01-15T06:14:03;96.00;;;63.75;;
34405;SDS011;20658;45.630;8.886;2024-01-15T06:16:37;93.43;;;63.58;;
34405;SDS011;20658;45.630;8.886;2024-01-15T06:19:10;96.10;;;63.75;;
34405;SDS011;20658;45.630;8.886;2024-01-15T06:21:44;99.35;;;67.10;;
34405;SDS011;20658;45.630;8.886;2024-01-15T06:24:17;99.53;;;68.25;;
34405;SDS011;20658;45.630;8.886;2024-01-15T06:26:51;93.07;;;64.70;;
34405;SDS011;20658;45.630;8.886;2024-01-15T06:29:26;94.22;;;64.95;;
34405;SDS011;20658;45.630;8.886;2024-01-15T06:32:00;103.80;;;68.22;;
34405;SDS011;20658;45.630;8.886;2024-01-15T06:34:34;120.47;;;77.97;;
34405;SDS011;20658;45.630;8.886;2024-01-15T06:37:08;108.32;;;73.07;;
34405;SDS011;20658;45.630;8.886;2024-01-15T06:39:41;110.13;;;72.88;;
34405;SDS011;20658;45.630;8.886;2024-01-15T06:42:14;112.65;;;70.53;;
34405;SDS011;20658;45.630;8.886;2024-01-15T06:44:49;112.18;;;71.20;;
34405;SDS011;20658;45.630;8.886;2024-01-15T06:47:22;105.20;;;69.38;;
34405;SDS011;20658;45.630;8.886;2024-01-15T06:49:56;110.13;;;71.15;;
34405;SDS011;20658;45.630;8.886;2024-01-15T06:52:30;109.07;;;70.63;;
34405;SDS011;20658;45.630;8.886;2024-01-15T06:55:03;112.30;;;71.43;;
34405;SDS011;20658;45.630;8.886;2024-01-15T06:57:38;100.63;;;66.03;;
34405;SDS011;20658;45.630;8.886;2024-01-15T07:00:13;112.07;;;69.07;;
34405;SDS011;20658;45.630;8.886;2024-01-15T07:02:48;111.53;;;72.82;;
34405;SDS011;20658;45.630;8.886;2024-01-15T07:05:22;106.90;;;71.45;;
34405;SDS011;20658;45.630;8.886;2024-01-15T07:07:56;105.60;;;70.45;;
34405;SDS011;20658;45.630;8.886;2024-01-15T07:10:29;118.70;;;78.30;;
34405;SDS011;20658;45.630;8.886;2024-01-15T07:13:02;122.10;;;79.82;;
34405;SDS011;20658;45.630;8.886;2024-01-15T07:15:38;115.47;;;74.20;;
34405;SDS011;20658;45.630;8.886;2024-01-15T07:18:11;117.95;;;75.15;;
34405;SDS011;20658;45.630;8.886;2024-01-15T07:20:45;128.27;;;77.28;;
34405;SDS011;20658;45.630;8.886;2024-01-15T07:23:18;113.68;;;74.85;;
34405;SDS011;20658;45.630;8.886;2024-01-15T07:25:51;124.68;;;78.47;;
34405;SDS011;20658;45.630;8.886;2024-01-15T07:28:25;119.63;;;79.10;;
34405;SDS011;20658;45.630;8.886;2024-01-15T07:31:02;122.78;;;78.28;;
34405;SDS011;20658;45.630;8.886;2024-01-15T07:33:37;119.45;;;75.82;;
34405;SDS011;20658;45.630;8.886;2024-01-15T07:36:11;116.45;;;76.03;;
34405;SDS011;20658;45.630;8.886;2024-01-15T07:38:44;107.78;;;71.82;;
34405;SDS011;20658;45.630;8.886;2024-01-15T07:41:17;118.28;;;75.18;;
34405;SDS011;20658;45.630;8.886;2024-01-15T07:43:51;108.05;;;69.22;;
34405;SDS011;20658;45.630;8.886;2024-01-15T07:46:26;114.10;;;72.95;;
34405;SDS011;20658;45.630;8.886;2024-01-15T07:48:59;107.90;;;70.90;;
34405;SDS011;20658;45.630;8.886;2024-01-15T07:51:32;103.70;;;69.85;;
34405;SDS011;20658;45.630;8.886;2024-01-15T07:54:06;102.93;;;69.72;;
34405;SDS011;20658;45.630;8.886;2024-01-15T07:56:55;114.63;;;74.72;;
34405;SDS011;20658;45.630;8.886;2024-01-15T07:59:29;111.68;;;71.03;;
34405;SDS011;20658;45.630;8.886;2024-01-15T08:02:04;101.55;;;67.47;;
34405;SDS011;20658;45.630;8.886;2024-01-15T08:04:38;99.60;;;64.97;;
34405;SDS011;20658;45.630;8.886;2024-01-15T08:07:11;98.15;;;65.07;;
34405;SDS011;20658;45.630;8.886;2024-01-15T08:09:45;105.30;;;67.18;;
34405;SDS011;20658;45.630;8.886;2024-01-15T08:12:20;93.22;;;61.33;;
34405;SDS011;20658;45.630;8.886;2024-01-15T08:14:53;97.07;;;62.55;;
34405;SDS011;20658;45.630;8.886;2024-01-15T08:17:28;95.60;;;64.05;;
34405;SDS011;20658;45.630;8.886;2024-01-15T08:20:02;97.72;;;67.15;;
34405;SDS011;20658;45.630;8.886;2024-01-15T08:22:36;94.47;;;64.40;;
34405;SDS011;20658;45.630;8.886;2024-01-15T08:25:11;94.38;;;61.53;;
34405;SDS011;20658;45.630;8.886;2024-01-15T08:27:40;88.70;;;58.78;;
34405;SDS011;20658;45.630;8.886;2024-01-15T08:30:14;87.75;;;60.35;;
34405;SDS011;20658;45.630;8.886;2024-01-15T08:32:49;83.43;;;56.55;;
34405;SDS011;20658;45.630;8.886;2024-01-15T08:35:22;90.10;;;57.58;;
34405;SDS011;20658;45.630;8.886;2024-01-15T08:37:56;83.65;;;57.55;;
34405;SDS011;20658;45.630;8.886;2024-01-15T08:40:30;81.85;;;54.95;;
34405;SDS011;20658;45.630;8.886;2024-01-15T08:43:03;85.32;;;58.33;;
34405;SDS011;20658;45.630;8.886;2024-01-15T08:45:33;91.38;;;60.17;;
34405;SDS011;20658;45.630;8.886;2024-01-15T08:48:07;100.53;;;63.13;;
34405;SDS011;20658;45.630;8.886;2024-01-15T08:50:41;86.45;;;60.28;;
34405;SDS011;20658;45.630;8.886;2024-01-15T08:53:17;91.90;;;61.95;;
34405;SDS011;20658;45.630;8.886;2024-01-15T08:55:50;91.95;;;59.55;;
34405;SDS011;20658;45.630;8.886;2024-01-15T08:58:24;83.32;;;58.15;;
34405;SDS011;20658;45.630;8.886;2024-01-15T09:00:57;79.18;;;57.17;;
34405;SDS011;20658;45.630;8.886;2024-01-15T09:03:32;87.10;;;56.33;;
34405;SDS011;20658;45.630;8.886;2024-01-15T09:06:06;91.35;;;60.92;;
34405;SDS011;20658;45.630;8.886;2024-01-15T09:08:40;79.90;;;54.25;;
34405;SDS011;20658;45.630;8.886;2024-01-15T09:11:14;77.97;;;52.22;;
34405;SDS011;20658;45.630;8.886;2024-01-15T09:13:47;79.90;;;53.80;;
34405;SDS011;20658;45.630;8.886;2024-01-15T09:16:21;84.43;;;59.60;;
34405;SDS011;20658;45.630;8.886;2024-01-15T09:18:50;81.18;;;58.78;;
34405;SDS011;20658;45.630;8.886;2024-01-15T09:21:24;84.60;;;56.78;;
34405;SDS011;20658;45.630;8.886;2024-01-15T09:23:57;87.30;;;57.42;;
34405;SDS011;20658;45.630;8.886;2024-01-15T09:26:31;80.28;;;58.88;;
34405;SDS011;20658;45.630;8.886;2024-01-15T09:29:04;83.53;;;56.50;;
34405;SDS011;20658;45.630;8.886;2024-01-15T09:31:37;76.25;;;52.63;;
34405;SDS011;20658;45.630;8.886;2024-01-15T09:34:12;78.50;;;52.95;;
34405;SDS011;20658;45.630;8.886;2024-01-15T09:36:46;77.88;;;52.28;;
34405;SDS011;20658;45.630;8.886;2024-01-15T09:39:20;68.82;;;46.40;;
34405;SDS011;20658;45.630;8.886;2024-01-15T09:41:54;74.93;;;50.72;;
34405;SDS011;20658;45.630;8.886;2024-01-15T09:44:28;66.18;;;46.22;;
34405;SDS011;20658;45.630;8.886;2024-01-15T09:47:03;60.40;;;44.25;;
34405;SDS011;20658;45.630;8.886;2024-01-15T09:49:39;64.65;;;46.20;;
34405;SDS011;20658;45.630;8.886;2024-01-15T09:52:12;67.22;;;45.30;;
34405;SDS011;20658;45.630;8.886;2024-01-15T09:54:48;65.22;;;42.38;;
34405;SDS011;20658;45.630;8.886;2024-01-15T09:57:23;61.72;;;44.10;;
34405;SDS011;20658;45.630;8.886;2024-01-15T09:59:56;63.92;;;41.63;;
34405;SDS011;20658;45.630;8.886;2024-01-15T10:02:32;54.75;;;37.80;;
34405;SDS011;20658;45.630;8.886;2024-01-15T10:05:08;55.42;;;34.22;;
34405;SDS011;20658;45.630;8.886;2024-01-15T10:07:41;49.50;;;33.45;;
34405;SDS011;20658;45.630;8.886;2024-01-15T10:10:16;54.88;;;37.25;;
34405;SDS011;20658;45.630;8.886;2024-01-15T10:12:49;55.83;;;37.92;;
34405;SDS011;20658;45.630;8.886;2024-01-15T10:15:23;59.90;;;37.50;;
34405;SDS011;20658;45.630;8.886;2024-01-15T10:17:57;61.17;;;41.95;;
34405;SDS011;20658;45.630;8.886;2024-01-15T10:20:33;67.45;;;41.88;;
34405;SDS011;20658;45.630;8.886;2024-01-15T10:23:06;47.03;;;32.78;;
34405;SDS011;20658;45.630;8.886;2024-01-15T10:25:41;51.50;;;34.72;;
34405;SDS011;20658;45.630;8.886;2024-01-15T10:28:14;46.63;;;32.03;;
34405;SDS011;20658;45.630;8.886;2024-01-15T10:30:52;48.17;;;36.00;;
34405;SDS011;20658;45.630;8.886;2024-01-15T10:33:27;46.47;;;32.70;;
34405;SDS011;20658;45.630;8.886;2024-01-15T10:36:02;49.05;;;33.20;;
34405;SDS011;20658;45.630;8.886;2024-01-15T10:38:42;52.05;;;33.97;;
34405;SDS011;20658;45.630;8.886;2024-01-15T10:41:16;49.97;;;33.85;;
34405;SDS011;20658;45.630;8.886;2024-01-15T10:43:50;54.13;;;36.80;;
34405;SDS011;20658;45.630;8.886;2024-01-15T10:46:24;54.17;;;38.08;;
34405;SDS011;20658;45.630;8.886;2024-01-15T10:48:58;51.83;;;37.15;;
34405;SDS011;20658;45.630;8.886;2024-01-15T10:51:33;45.30;;;33.92;;
34405;SDS011;20658;45.630;8.886;2024-01-15T10:54:07;47.20;;;32.33;;
34405;SDS011;20658;45.630;8.886;2024-01-15T10:56:43;40.75;;;29.27;;
34405;SDS011;20658;45.630;8.886;2024-01-15T10:59:19;41.58;;;27.15;;
34405;SDS011;20658;45.630;8.886;2024-01-15T11:01:54;43.95;;;28.15;;
34405;SDS011;20658;45.630;8.886;2024-01-15T11:04:28;40.15;;;28.90;;
34405;SDS011;20658;45.630;8.886;2024-01-15T11:07:05;47.17;;;31.85;;
34405;SDS011;20658;45.630;8.886;2024-01-15T11:09:39;48.70;;;31.25;;
34405;SDS011;20658;45.630;8.886;2024-01-15T11:12:13;43.45;;;31.27;;
34405;SDS011;20658;45.630;8.886;2024-01-15T11:14:49;41.42;;;30.23;;
34405;SDS011;20658;45.630;8.886;2024-01-15T11:17:22;43.67;;;30.58;;
34405;SDS011;20658;45.630;8.886;2024-01-15T11:19:57;45.17;;;30.27;;
34405;SDS011;20658;45.630;8.886;2024-01-15T11:22:48;42.33;;;29.67;;
34405;SDS011;20658;45.630;8.886;2024-01-15T11:25:22;42.92;;;28.98;;
34405;SDS011;20658;45.630;8.886;2024-01-15T11:27:56;36.67;;;26.45;;
34405;SDS011;20658;45.630;8.886;2024-01-15T11:30:29;43.88;;;27.70;;
34405;SDS011;20658;45.630;8.886;2024-01-15T11:33:07;42.80;;;29.50;;
34405;SDS011;20658;45.630;8.886;2024-01-15T11:36:07;39.65;;;25.90;;
34405;SDS011;20658;45.630;8.886;2024-01-15T11:38:42;37.83;;;26.20;;
34405;SDS011;20658;45.630;8.886;2024-01-15T11:41:15;41.60;;;27.20;;
34405;SDS011;20658;45.630;8.886;2024-01-15T11:43:49;39.78;;;24.67;;
34405;SDS011;20658;45.630;8.886;2024-01-15T11:46:22;39.33;;;26.40;;
34405;SDS011;20658;45.630;8.886;2024-01-15T11:49:03;36.78;;;24.40;;
34405;SDS011;20658;45.630;8.886;2024-01-15T11:51:37;34.70;;;24.33;;
34405;SDS011;20658;45.630;8.886;2024-01-15T11:54:12;37.67;;;26.38;;
34405;SDS011;20658;45.630;8.886;2024-01-15T11:56:48;36.17;;;24.35;;
34405;SDS011;20658;45.630;8.886;2024-01-15T11:59:21;36.72;;;23.55;;
34405;SDS011;20658;45.630;8.886;2024-01-15T12:01:56;32.88;;;21.65;;
34405;SDS011;20658;45.630;8.886;2024-01-15T12:04:30;32.97;;;21.50;;
34405;SDS011;20658;45.630;8.886;2024-01-15T12:07:03;27.23;;;18.23;;
34405;SDS011;20658;45.630;8.886;2024-01-15T12:09:43;32.17;;;20.05;;
34405;SDS011;20658;45.630;8.886;2024-01-15T12:12:18;31.38;;;19.92;;
34405;SDS011;20658;45.630;8.886;2024-01-15T12:14:59;34.20;;;19.38;;
34405;SDS011;20658;45.630;8.886;2024-01-15T12:17:32;27.92;;;16.83;;
34405;SDS011;20658;45.630;8.886;2024-01-15T12:20:06;27.40;;;16.15;;
34405;SDS011;20658;45.630;8.886;2024-01-15T12:22:41;24.27;;;15.30;;
34405;SDS011;20658;45.630;8.886;2024-01-15T12:25:16;26.40;;;14.90;;
34405;SDS011;20658;45.630;8.886;2024-01-15T12:27:49;29.08;;;15.77;;
34405;SDS011;20658;45.630;8.886;2024-01-15T12:30:23;28.15;;;17.30;;
34405;SDS011;20658;45.630;8.886;2024-01-15T12:32:58;24.77;;;15.60;;
34405;SDS011;20658;45.630;8.886;2024-01-15T12:35:36;26.38;;;15.45;;
34405;SDS011;20658;45.630;8.886;2024-01-15T12:38:10;26.20;;;15.68;;
34405;SDS011;20658;45.630;8.886;2024-01-15T12:40:45;22.52;;;14.25;;
34405;SDS011;20658;45.630;8.886;2024-01-15T12:43:18;22.75;;;13.93;;
34405;SDS011;20658;45.630;8.886;2024-01-15T12:45:52;23.58;;;14.90;;
34405;SDS011;20658;45.630;8.886;2024-01-15T12:48:25;27.70;;;17.15;;
34405;SDS011;20658;45.630;8.886;2024-01-15T12:51:00;24.92;;;15.85;;
34405;SDS011;20658;45.630;8.886;2024-01-15T12:53:33;25.88;;;15.80;;
34405;SDS011;20658;45.630;8.886;2024-01-15T12:56:08;23.92;;;15.45;;
34405;SDS011;20658;45.630;8.886;2024-01-15T12:58:42;25.67;;;14.90;;
34405;SDS011;20658;45.630;8.886;2024-01-15T13:01:15;21.30;;;13.15;;
34405;SDS011;20658;45.630;8.886;2024-01-15T13:03:49;22.23;;;12.57;;
34405;SDS011;20658;45.630;8.886;2024-01-15T13:06:22;20.60;;;12.57;;
34405;SDS011;20658;45.630;8.886;2024-01-15T13:08:56;19.77;;;10.68;;
34405;SDS011;20658;45.630;8.886;2024-01-15T13:11:31;19.02;;;10.52;;
34405;SDS011;20658;45.630;8.886;2024-01-15T13:14:04;21.58;;;11.43;;
34405;SDS011;20658;45.630;8.886;2024-01-15T13:16:38;20.65;;;11.13;;
34405;SDS011;20658;45.630;8.886;2024-01-15T13:19:12;24.75;;;12.40;;
34405;SDS011;20658;45.630;8.886;2024-01-15T13:21:46;21.27;;;11.95;;
34405;SDS011;20658;45.630;8.886;2024-01-15T13:24:19;22.45;;;11.35;;
34405;SDS011;20658;45.630;8.886;2024-01-15T13:26:56;21.00;;;11.40;;
34405;SDS011;20658;45.630;8.886;2024-01-15T13:29:30;22.88;;;11.85;;
34405;SDS011;20658;45.630;8.886;2024-01-15T13:32:03;20.92;;;12.23;;
34405;SDS011;20658;45.630;8.886;2024-01-15T13:34:37;21.95;;;12.48;;
34405;SDS011;20658;45.630;8.886;2024-01-15T13:37:11;24.73;;;12.63;;
34405;SDS011;20658;45.630;8.886;2024-01-15T13:39:44;21.17;;;10.73;;
34405;SDS011;20658;45.630;8.886;2024-01-15T13:42:19;25.40;;;12.18;;
34405;SDS011;20658;45.630;8.886;2024-01-15T13:44:54;20.67;;;11.75;;
34405;SDS011;20658;45.630;8.886;2024-01-15T13:47:27;20.27;;;10.05;;
34405;SDS011;20658;45.630;8.886;2024-01-15T13:50:01;19.48;;;9.13;;
34405;SDS011;20658;45.630;8.886;2024-01-15T13:52:35;19.52;;;9.95;;
34405;SDS011;20658;45.630;8.886;2024-01-15T13:55:09;23.83;;;12.50;;
34405;SDS011;20658;45.630;8.886;2024-01-15T13:57:43;24.08;;;12.10;;
34405;SDS011;20658;45.630;8.886;2024-01-15T14:00:17;17.90;;;10.32;;
34405;SDS011;20658;45.630;8.886;2024-01-15T14:02:51;19.75;;;10.52;;
34405;SDS011;20658;45.630;8.886;2024-01-15T14:05:24;17.38;;;9.75;;
34405;SDS011;20658;45.630;8.886;2024-01-15T14:07:58;20.88;;;10.95;;
34405;SDS011;20658;45.630;8.886;2024-01-15T14:10:31;20.58;;;10.80;;
34405;SDS011;20658;45.630;8.886;2024-01-15T14:13:06;18.55;;;10.15;;
34405;SDS011;20658;45.630;8.886;2024-01-15T14:15:40;19.67;;;10.40;;
34405;SDS011;20658;45.630;8.886;2024-01-15T14:18:13;23.17;;;10.88;;
34405;SDS011;20658;45.630;8.886;2024-01-15T14:20:47;23.40;;;12.43;;
34405;SDS011;20658;45.630;8.886;2024-01-15T14:23:21;22.83;;;12.48;;
34405;SDS011;20658;45.630;8.886;2024-01-15T14:25:56;22.30;;;12.43;;
34405;SDS011;20658;45.630;8.886;2024-01-15T14:28:30;24.35;;;13.05;;
34405;SDS011;20658;45.630;8.886;2024-01-15T14:31:04;20.67;;;11.90;;
34405;SDS011;20658;45.630;8.886;2024-01-15T14:33:38;23.23;;;13.40;;
34405;SDS011;20658;45.630;8.886;2024-01-15T14:36:12;30.52;;;12.02;;
34405;SDS011;20658;45.630;8.886;2024-01-15T14:38:45;22.88;;;12.35;;
34405;SDS011;20658;45.630;8.886;2024-01-15T14:41:20;24.15;;;13.77;;
34405;SDS011;20658;45.630;8.886;2024-01-15T14:43:57;23.65;;;13.63;;
34405;SDS011;20658;45.630;8.886;2024-01-15T14:46:30;22.20;;;11.82;;
34405;SDS011;20658;45.630;8.886;2024-01-15T14:49:04;24.63;;;13.02;;
34405;SDS011;20658;45.630;8.886;2024-01-15T14:51:37;21.25;;;11.68;;
34405;SDS011;20658;45.630;8.886;2024-01-15T14:54:11;26.33;;;14.40;;
34405;SDS011;20658;45.630;8.886;2024-01-15T14:56:44;21.42;;;13.65;;
34405;SDS011;20658;45.630;8.886;2024-01-15T14:59:19;26.45;;;12.60;;